Latest Weather Observations for Liawenee

IDT60801

Issued at 9:05 pm EST Thursday 31 July 2014 (issued every 30 minutes, with the page automatically refreshed every 10 minutes)

About weather observations | Map of weather stations | Latest weather observations for TAS | Other Formats
Station Details ID: 096033 Name: LIAWENEE Lat: -41.90 Lon: 146.67 Height: 1057.0 m
Data from the previous 72 hours. | See also: Recent months at Liawenee
Date/Time
EST
Temp
°C
App
Temp
°C
Dew
Point
Rel
Hum
%
Delta-T
°C
Wind Press
QNH
hPa
Press
MSL
hPa
Rain
since 9 am
mm
Dir
 
Spd
km/h
Gust
km/h
Spd
kts
Gust
kts
31/09:00pm -1.2 -11.7 -2.3 92 0.3 W 43 67 23 36 983.8 985.4 17.6
31/08:30pm -1.3 -11.0 -2.4 92 0.3 WNW 39 63 21 34 983.8 - 17.6
31/08:02pm -1.0 -10.4 -2.7 88 0.6 W 37 56 20 30 982.8 - 17.6
31/08:00pm -1.1 -10.9 -2.7 89 0.5 W 39 56 21 30 982.8 984.3 17.6
31/07:30pm -1.1 -11.8 -3.0 87 0.6 W 44 67 24 36 982.8 - 17.6
31/07:00pm -1.1 -10.7 -1.7 96 0.2 WNW 39 57 21 31 982.9 984.4 17.6
31/06:30pm -0.6 -11.3 -3.0 84 0.8 WNW 44 65 24 35 982.4 - 17.6
31/06:00pm -0.2 -10.3 -2.1 87 0.7 WNW 41 67 22 36 982.3 983.8 17.6
31/05:30pm -0.4 -8.6 -0.7 98 0.1 WNW 32 57 17 31 981.9 - 17.2
31/05:18pm -0.3 -9.1 -0.9 96 0.2 W 35 65 19 35 981.9 - 17.2
31/05:08pm 0.0 -7.4 -0.4 97 0.2 WNW 28 46 15 25 981.5 - 17.2
31/05:00pm 0.1 -6.9 -0.3 97 0.2 WNW 26 41 14 22 982.2 983.7 17.0
31/04:33pm 0.7 -6.7 -0.4 92 0.4 NW 28 54 15 29 981.0 - 16.6
31/04:30pm 0.7 -6.3 -0.3 93 0.4 NW 26 54 14 29 981.2 - 16.6
31/04:00pm 0.6 -5.6 0.0 96 0.2 NW 22 43 12 23 981.7 983.2 15.8
31/03:30pm 0.8 -5.7 0.1 95 0.3 WNW 24 37 13 20 982.2 - 15.2
31/03:00pm 1.7 -5.5 0.7 93 0.4 WNW 28 43 15 23 981.5 983.0 15.2
31/02:30pm 2.1 -3.5 1.5 96 0.2 WNW 20 30 11 16 981.5 - 15.2
31/02:00pm 1.8 -5.3 1.2 96 0.2 W 28 41 15 22 981.9 983.4 15.0
31/01:30pm 2.1 -5.0 1.5 96 0.2 W 28 43 15 23 981.5 - 14.4
31/01:00pm 2.6 -7.9 1.4 92 0.5 W 46 78 25 42 981.6 983.1 13.4
31/12:53pm 4.5 -4.4 3.2 91 0.6 WNW 39 78 21 42 981.2 - 12.6
31/12:51pm 5.0 -3.3 4.0 93 0.5 WNW 37 56 20 30 980.9 - 12.2
31/12:50pm 5.0 -3.0 4.0 93 0.5 WNW 35 46 19 25 980.8 - 12.0
31/12:30pm 5.4 -2.9 4.1 91 0.6 NNW 37 78 20 42 980.1 - 10.2
31/12:00pm 5.6 -2.3 4.2 91 0.6 NNW 35 69 19 37 980.7 982.2 8.8
31/11:30am 5.6 -2.7 4.1 90 0.7 NNW 37 72 20 39 981.5 - 7.2
31/11:00am 5.8 -1.8 4.1 89 0.8 NW 33 65 18 35 982.9 984.4 6.2
31/10:31am 5.6 -1.0 4.4 92 0.5 NW 28 50 15 27 983.8 - 5.0
31/10:30am 5.6 -0.6 4.2 91 0.6 NW 26 50 14 27 983.9 - 4.8
31/10:00am 5.5 -2.4 4.2 91 0.6 NW 35 59 19 32 984.2 985.7 3.4
31/09:36am 5.5 -1.1 4.2 91 0.6 NNW 28 59 15 32 984.7 - 2.8
31/09:30am 4.9 -0.2 3.9 93 0.4 NW 20 39 11 21 984.7 - 2.6
31/09:00am 4.9 -1.8 3.6 91 0.6 NNW 28 50 15 27 985.9 987.5 26.6
31/08:38am 4.8 -1.9 3.8 93 0.4 NW 28 52 15 28 986.5 - 25.8
31/08:30am 4.0 -1.7 3.0 93 0.4 NW 22 35 12 19 986.7 - 25.6
31/08:01am 4.3 -2.5 3.0 91 0.6 NW 28 46 15 25 987.7 - 23.8
31/08:00am 4.1 -2.4 2.9 92 0.5 NW 26 46 14 25 987.6 989.2 23.6
31/07:30am 4.1 -3.5 2.9 92 0.5 NW 32 56 17 30 987.7 - 22.8
31/07:00am 4.3 -2.8 3.3 93 0.4 WNW 30 50 16 27 988.5 990.1 21.2
31/06:30am 5.1 -2.4 3.6 90 0.7 NW 32 57 17 31 988.5 - 17.6
31/06:00am 5.1 -1.6 3.8 91 0.6 NW 28 54 15 29 988.5 990.1 14.6
31/05:30am 5.1 -2.7 2.8 85 1.0 WNW 33 57 18 31 988.9 - 13.8
31/05:00am 5.1 -3.7 3.4 89 0.8 WNW 39 63 21 34 989.8 991.5 13.8
31/04:30am 5.7 -3.0 3.9 88 0.8 WNW 39 65 21 35 989.5 - 13.4
31/04:00am 5.6 -1.9 4.2 91 0.6 WNW 33 63 18 34 989.8 991.5 13.4
31/03:30am 5.7 -2.6 4.3 91 0.6 WNW 37 67 20 36 990.1 - 12.8
31/03:00am 5.9 -2.5 3.9 87 0.9 WNW 37 59 20 32 990.5 992.2 12.4
31/02:30am 5.5 -4.2 4.0 90 0.7 WNW 44 69 24 37 991.0 - 12.4
31/02:00am 5.6 -3.5 4.2 91 0.6 WNW 41 61 22 33 991.6 993.3 12.4
31/01:33am 5.6 -1.9 4.4 92 0.5 WNW 33 52 18 28 991.8 - 12.0
31/01:30am 5.3 -2.6 4.1 92 0.5 WNW 35 50 19 27 991.8 - 11.8
31/01:00am 5.9 -1.0 4.7 92 0.6 NW 30 52 16 28 991.9 993.7 10.0
31/12:30am 5.2 -1.8 4.0 92 0.5 NW 30 54 16 29 992.5 - 9.6
31/12:00am 4.6 -3.5 3.4 92 0.5 WNW 35 59 19 32 993.0 994.8 9.0
 
Date/Time
EST
Temp
°C
App
Temp
°C
Dew
Point
Rel
Hum
%
Delta-T
°C
Wind Press
QNH
hPa
Press
MSL
hPa
Rain
since 9 am
mm
Dir
 
Spd
km/h
Gust
km/h
Spd
kts
Gust
kts
30/11:31pm 5.2 -3.6 3.5 89 0.8 WNW 39 67 21 36 993.5 - 8.0
30/11:30pm 4.9 -3.6 3.2 89 0.8 WNW 37 54 20 29 993.4 - 8.0
30/11:00pm 5.1 -2.9 3.6 90 0.7 WNW 35 57 19 31 993.7 995.5 7.6
30/10:30pm 4.5 -3.2 3.2 91 0.6 WNW 33 56 18 30 994.0 - 7.2
30/10:01pm 4.7 -3.8 3.0 89 0.7 WNW 37 56 20 30 994.1 - 7.0
30/10:00pm 4.6 -4.3 2.9 89 0.8 WNW 39 56 21 30 994.2 996.1 7.0
30/09:30pm 4.7 -3.8 3.2 90 0.7 WNW 37 70 20 38 994.9 - 6.8
30/09:00pm 4.7 -5.0 2.7 87 0.9 WNW 43 63 23 34 994.6 996.4 6.8
30/08:35pm 5.4 -4.3 2.6 82 1.2 WNW 43 93 23 50 994.8 - 6.8
30/08:30pm 5.1 -3.8 3.0 86 0.9 WNW 39 69 21 37 994.9 - 6.6
30/08:00pm 5.5 -5.0 3.8 89 0.8 WNW 48 78 26 42 995.5 997.3 6.0
30/07:32pm 5.4 -3.0 3.7 89 0.8 WNW 37 67 20 36 995.3 - 5.8
30/07:30pm 5.3 -3.2 3.3 87 0.9 WNW 37 54 20 29 995.3 - 5.8
30/07:00pm 5.3 -4.5 3.2 86 0.9 WNW 44 69 24 37 995.5 997.3 5.8
30/06:30pm 4.8 -4.9 2.7 86 0.9 WNW 43 65 23 35 995.6 - 5.6
30/06:00pm 4.9 -5.3 3.2 89 0.8 WNW 46 78 25 42 996.0 997.9 5.6
30/05:35pm 4.5 -4.4 3.2 91 0.6 W 39 65 21 35 995.8 - 5.2
30/05:30pm 4.2 -4.3 2.9 91 0.6 W 37 54 20 29 995.8 - 5.2
30/05:00pm 4.7 -4.9 3.2 90 0.7 WNW 43 63 23 34 996.0 997.9 5.0
30/04:30pm 5.4 -2.9 4.2 92 0.5 WNW 37 61 20 33 995.8 - 4.6
30/04:00pm 5.8 -2.6 3.8 87 0.9 WNW 37 65 20 35 995.2 997.1 4.0
30/03:32pm 5.9 -2.4 4.4 90 0.7 WNW 37 56 20 30 995.6 - 4.0
30/03:30pm 5.9 -2.4 4.4 90 0.7 WNW 37 54 20 29 995.6 - 3.8
30/03:00pm 5.6 -2.4 3.9 89 0.8 WNW 35 54 19 29 995.9 997.8 3.6
30/02:44pm 5.3 -1.8 3.6 89 0.8 NW 30 48 16 26 996.0 - 3.6
30/02:30pm 5.4 -2.3 3.6 88 0.8 WNW 33 50 18 27 996.2 - 3.6
30/02:00pm 5.8 -4.3 4.0 88 0.8 WNW 46 70 25 38 996.6 998.4 3.6
30/01:30pm 5.6 -2.9 3.3 85 1.0 WNW 37 63 20 34 996.3 - 3.6
30/01:00pm 4.7 -3.4 3.5 92 0.5 WNW 35 54 19 29 997.2 999.1 3.6
30/12:31pm 3.8 -3.1 2.5 91 0.6 NW 28 50 15 27 997.5 - 3.4
30/12:30pm 3.9 -2.6 2.7 92 0.5 NW 26 43 14 23 997.5 - 3.2
30/12:00pm 3.9 -4.8 2.1 88 0.8 WNW 37 61 20 33 997.9 999.8 3.0
30/11:30am 3.8 -3.9 2.5 91 0.6 WNW 32 50 17 27 998.7 - 2.6
30/11:11am 4.4 -2.4 3.2 92 0.5 WNW 28 52 15 28 998.6 - 2.2
30/11:00am 3.6 -1.7 2.9 95 0.3 WNW 20 33 11 18 998.7 1000.6 2.2
30/10:30am 3.4 -2.4 2.4 93 0.4 WNW 22 33 12 18 999.1 - 1.0
30/10:00am 4.0 -4.2 2.5 90 0.7 WNW 35 54 19 29 998.9 1000.8 0.2
30/09:37am 3.7 -3.6 2.4 91 0.6 WNW 30 48 16 26 999.0 - 0.2
30/09:30am 3.4 -4.3 2.2 92 0.5 WNW 32 44 17 24 999.0 - 0.2
30/09:00am 3.1 -4.3 1.9 92 0.5 WNW 30 43 16 23 999.0 1000.9 25.6
30/08:30am 3.2 -4.6 1.4 88 0.7 WNW 32 50 17 27 998.2 - 25.6
30/08:02am 2.1 -5.8 0.9 92 0.5 WNW 32 50 17 27 998.5 - 25.6
30/08:00am 2.2 -5.9 1.0 92 0.5 WNW 33 50 18 27 998.5 1000.4 25.6
30/07:37am 1.9 -5.6 0.9 93 0.4 WNW 30 48 16 26 998.3 - 25.4
30/07:30am 1.8 -5.4 0.6 92 0.5 WNW 28 43 15 23 998.2 - 25.4
30/07:02am 1.9 -5.3 0.4 90 0.6 NW 28 48 15 26 998.1 - 25.4
30/07:00am 1.8 -5.0 0.5 91 0.5 WNW 26 48 14 26 998.0 999.9 25.4
30/06:30am 1.2 -5.7 0.3 94 0.4 WNW 26 39 14 21 998.1 - 25.4
30/06:00am 1.0 -5.6 -0.1 92 0.4 WNW 24 35 13 19 998.3 1000.3 25.4
30/05:30am 0.5 -6.1 -0.1 96 0.2 W 24 35 13 19 998.6 - 25.2
30/05:00am 0.7 -7.4 -0.6 91 0.5 W 32 46 17 25 998.5 1000.4 24.8
30/04:32am 1.4 -7.8 -1.0 84 0.9 W 37 56 20 30 997.6 - 24.8
30/04:30am 1.3 -8.2 -0.9 85 0.8 W 39 56 21 30 997.7 - 24.8
30/04:15am 1.5 -7.9 -0.3 88 0.7 W 39 61 21 33 997.5 - 24.8
30/04:00am 1.1 -7.9 0.2 94 0.4 W 37 50 20 27 997.6 999.5 24.6
30/03:45am 0.8 -6.4 0.4 97 0.2 W 28 50 15 27 997.5 - 24.2
30/03:44am 0.8 -6.1 0.4 97 0.2 W 26 50 14 27 997.5 - 24.2
30/03:30am 0.4 -6.9 0.0 97 0.2 W 28 32 15 17 997.1 - 23.8
30/03:00am 2.2 -8.7 -0.9 80 1.2 W 46 65 25 35 996.2 998.1 23.6
30/02:30am 2.2 -9.8 -0.9 80 1.2 W 52 78 28 42 995.8 - 23.6
30/02:00am 1.8 -8.9 0.3 90 0.6 W 46 69 25 37 995.2 997.1 23.6
30/01:30am 2.3 -9.6 -0.3 83 1.0 W 52 82 28 44 994.1 - 23.6
30/01:00am 2.4 -10.2 0.0 84 1.0 W 56 83 30 45 993.1 994.9 23.4
30/12:30am 2.1 -10.1 0.2 87 0.8 W 54 80 29 43 993.2 - 23.4
30/12:18am 2.2 -8.8 0.7 90 0.6 W 48 80 26 43 993.1 - 23.4
30/12:00am 1.7 -6.8 1.0 95 0.3 W 35 57 19 31 992.9 994.7 23.2
 
Date/Time
EST
Temp
°C
App
Temp
°C
Dew
Point
Rel
Hum
%
Delta-T
°C
Wind Press
QNH
hPa
Press
MSL
hPa
Rain
since 9 am
mm
Dir
 
Spd
km/h
Gust
km/h
Spd
kts
Gust
kts
29/11:30pm 2.1 -7.9 0.9 92 0.5 W 43 63 23 34 992.2 - 22.4
29/11:00pm 2.2 -9.2 0.7 90 0.6 W 50 76 27 41 992.4 994.1 22.0
29/10:30pm 1.1 -9.9 0.4 95 0.3 W 48 74 26 40 992.2 - 21.8
29/10:00pm 2.5 -7.1 0.9 89 0.7 W 41 69 22 37 991.2 993.0 20.6
29/09:30pm 1.7 -8.5 1.0 95 0.3 W 44 63 24 34 991.9 - 19.6
29/09:09pm 3.2 -7.4 0.6 83 1.1 W 46 80 25 43 990.9 - 18.8
29/09:02pm 2.6 -7.1 0.8 88 0.7 W 41 59 22 32 990.7 - 18.8
29/09:00pm 2.5 -7.2 0.6 87 0.8 W 41 57 22 31 990.8 992.5 18.8
29/08:47pm 3.0 -10.5 0.7 85 0.9 W 61 83 33 45 990.9 - 18.8
29/08:46pm 3.0 -10.4 0.9 86 0.9 W 61 78 33 42 990.9 - 18.8
29/08:30pm 2.6 -7.0 1.1 90 0.6 W 41 63 22 34 991.0 - 18.2
29/08:05pm 3.4 -8.0 0.8 83 1.1 W 50 89 27 48 990.7 - 18.2
29/08:00pm 3.0 -7.5 1.2 88 0.8 W 46 70 25 38 990.7 992.4 18.2
29/07:30pm 2.9 -8.7 1.4 90 0.6 W 52 76 28 41 990.8 - 17.8
29/07:00pm 3.0 -8.8 0.4 83 1.1 W 52 78 28 42 990.0 991.7 17.6
29/06:30pm 3.9 -9.2 2.7 92 0.5 W 61 98 33 53 989.9 - 17.4
29/06:00pm 4.8 -7.5 3.1 89 0.8 W 57 95 31 51 988.4 990.0 16.6
29/05:54pm 5.1 -6.2 3.3 88 0.8 W 52 93 28 50 988.4 - 16.6
29/05:30pm 5.5 -5.3 4.0 90 0.7 WNW 50 74 27 40 987.7 - 16.0
29/05:00pm 5.2 -3.9 4.0 92 0.5 WNW 41 67 22 36 988.0 989.7 15.6
29/04:30pm 5.6 -3.1 4.1 90 0.7 WNW 39 61 21 33 987.8 - 14.2
29/04:00pm 5.5 -2.8 4.3 92 0.6 WNW 37 67 20 36 988.6 990.2 14.2
29/03:30pm 5.1 -1.5 4.1 93 0.5 NW 28 54 15 29 988.5 - 13.2
29/03:07pm 4.7 -2.0 3.7 93 0.4 NW 28 46 15 25 989.3 - 12.4
29/03:00pm 4.7 -2.4 3.5 92 0.5 NW 30 46 16 25 989.4 991.0 12.4
29/02:30pm 4.5 -2.3 3.3 92 0.5 NW 28 52 15 28 990.3 - 11.8
29/02:00pm 4.5 -3.0 3.3 92 0.5 WNW 32 56 17 30 990.1 991.8 11.0
29/01:30pm 4.7 -4.1 3.5 92 0.5 WNW 39 59 21 32 990.4 - 10.8
29/01:00pm 4.0 -4.6 2.8 92 0.5 WNW 37 57 20 31 991.1 992.9 10.6
29/12:42pm 2.7 -5.1 2.0 95 0.3 WNW 32 50 17 27 991.6 - 10.4
29/12:30pm 2.1 -5.0 1.5 96 0.2 WNW 28 43 15 23 991.8 - 10.4
29/12:00pm 1.8 -5.7 1.1 95 0.3 WNW 30 50 16 27 992.5 994.2 8.4
29/11:30am 3.3 -6.5 2.1 92 0.5 WNW 43 72 23 39 992.2 - 5.4
29/11:28am 3.5 -7.3 2.0 90 0.6 WNW 48 72 26 39 992.2 - 5.4
29/11:09am 3.1 -3.9 1.9 92 0.5 NW 28 54 15 29 992.2 - 4.8
29/11:00am 2.2 -3.7 1.5 95 0.3 NW 22 39 12 21 992.7 994.5 4.6
29/10:30am 3.0 -5.7 1.8 92 0.5 WNW 37 57 20 31 993.2 - 1.4
29/10:20am 3.8 -5.7 2.0 88 0.8 WNW 41 80 22 43 993.0 - 0.8
29/10:00am 4.6 -4.0 2.8 88 0.8 WNW 37 59 20 32 993.0 994.8 0.4
29/09:30am 5.2 -2.4 4.0 92 0.5 WNW 33 57 18 31 993.0 - 0.0
29/09:00am 4.8 -2.9 3.6 92 0.5 WNW 33 52 18 28 993.0 994.8 25.2
29/08:36am 4.6 -2.5 3.6 93 0.4 WNW 30 48 16 26 993.2 - 25.2
29/08:30am 4.7 -2.0 3.7 93 0.4 WNW 28 43 15 23 993.4 - 25.0
29/08:01am 4.9 -1.8 3.7 92 0.5 WNW 28 46 15 25 993.9 - 23.8
29/08:00am 4.8 -1.9 3.8 93 0.5 WNW 28 43 15 23 993.8 995.6 23.8
29/07:32am 5.2 -1.5 3.9 91 0.6 NW 28 46 15 25 994.0 - 21.0
29/07:30am 5.3 -1.8 3.8 90 0.7 NW 30 46 16 25 993.9 - 20.8
29/07:28am 5.3 -1.4 3.8 90 0.7 NW 28 46 15 25 994.0 - 20.6
29/07:00am 5.1 -0.4 3.9 92 0.5 NW 22 35 12 19 994.1 995.9 19.0
29/06:32am 5.4 -1.6 4.1 91 0.6 NW 30 50 16 27 994.6 - 18.6
29/06:30am 5.4 -1.6 4.1 91 0.6 NW 30 43 16 23 994.7 - 18.2
29/06:13am 5.1 -1.6 3.6 90 0.7 NW 28 48 15 26 994.6 - 18.0
29/06:00am 4.7 -0.5 3.4 91 0.6 NNW 20 35 11 19 994.6 996.4 17.6
29/05:30am 4.6 -1.0 3.3 91 0.6 NNW 22 43 12 23 995.0 - 15.4
29/05:00am 3.9 -1.4 2.9 93 0.4 NW 20 41 11 22 996.5 998.3 14.4
29/04:30am 4.1 -1.0 2.9 92 0.5 NNW 19 32 10 17 997.1 - 10.6
29/04:00am 4.9 -1.8 3.6 91 0.6 NW 28 46 15 25 996.9 998.8 7.8
29/03:51am 4.7 -2.0 3.5 92 0.5 NW 28 52 15 28 996.9 - 7.8
29/03:30am 3.6 -2.1 2.7 94 0.4 NW 22 37 12 20 997.8 - 7.4
29/03:00am 3.6 -2.6 2.4 92 0.5 NW 24 41 13 22 998.5 1000.4 4.8
29/02:30am 4.6 -2.2 3.1 90 0.7 NW 28 46 15 25 998.6 - 3.0
29/02:00am 3.7 -2.8 2.7 93 0.4 NW 26 41 14 22 999.2 1001.2 2.6
29/01:30am 4.0 -2.9 2.7 91 0.6 NW 28 48 15 26 999.7 - 1.8
29/01:25am 4.2 -2.6 2.9 91 0.6 NW 28 48 15 26 999.8 - 1.6
29/01:00am 3.8 -2.3 2.5 91 0.6 NW 24 43 13 23 999.7 1001.6 1.6
29/12:30am 3.4 -2.9 1.6 88 0.8 NW 24 39 13 21 1000.4 - 1.4
29/12:00am 3.4 -2.4 2.2 92 0.5 WNW 22 35 12 19 1001.0 1003.0 1.2
 
Date/Time
EST
Temp
°C
App
Temp
°C
Dew
Point
Rel
Hum
%
Delta-T
°C
Wind Press
QNH
hPa
Press
MSL
hPa
Rain
since 9 am
mm
Dir
 
Spd
km/h
Gust
km/h
Spd
kts
Gust
kts
28/11:49pm 3.8 -3.1 2.3 90 0.6 NW 28 52 15 28 1001.1 - 1.0
28/11:30pm 3.5 -2.4 2.0 90 0.6 NW 22 39 12 21 1001.3 - 1.0
28/11:00pm 3.9 -2.3 1.9 87 0.9 NW 24 41 13 22 1002.0 1004.0 0.6
28/10:30pm 4.0 -2.3 1.7 85 1.0 WNW 24 33 13 18 1002.2 - 0.4
28/10:00pm 4.0 -3.0 1.9 86 0.9 NW 28 46 15 25 1002.4 1004.5 0.4
28/09:30pm 3.8 -2.1 2.0 88 0.8 NW 22 43 12 23 1002.7 - 0.2

Other Formats:

Comma delimited format used in spreadsheet applications
http://www.bom.gov.au/fwo/IDT60801/IDT60801.95959.axf

JavaScript Object Notation format (JSON) in row-major order
http://www.bom.gov.au/fwo/IDT60801/IDT60801.95959.json